Weather at Cham-Janahof Airfield

Public forecast

Using degrees Celsius for public forecast. Weather courtesy of forecast.io.

Closest aviation weather report (METAR) to Cham-Janahof Airfield

Closest report is Hohenfels Army Air Field, 32.1 nm (59.4 km) W. Retrieved 2020/09/26 17:56 UTC (17 minutes ago):

ETIH 261756Z AUTO 22005KT 9999 RA OVC012 07/05 A2950 RMK AO2 SLP999 P0003 60016 T00670050 10071 20067 52007

Closest aviation forecast (TAF) to Cham-Janahof Airfield

Forecast is more than 12 hours old.

Closest forecast is Hohenfels Army Air Field, 32.1 nm (59.4 km) W. Retrieved 2017/06/19 21:16 UTC (3 years ago):

TAF ETIH 192112Z 1921/2103 VRB06KT 9999 FEW070 QNH2994INS TEMPO 2011/2016 29012KT TX28/2013Z TN12/2003Z LAST NO AMDS AFT 1921